Time;durP1;ratioP1;P1;durP2;ratioP2;P2;SDS_P1;SDS_P2;PMS_P1;PMS_P2;Temp;Humidity;BMP_temperature;BMP_pressure;BME280_temperature;BME280_humidity;BME280_pressure;Samples;Min_cycle;Max_cycle;Signal;HPM_P1;HPM_P2
2022/06/27 00:00:24;;;;;;;0.83;0.80;;;;;;;;;;5001445;28;20216;-78
2022/06/27 00:02:49;;;;;;;1.63;0.80;;;;;;;;;;4999175;28;20187;-79
2022/06/27 00:05:14;;;;;;;0.80;0.80;;;;;;;;;;4995217;28;20187;-80
2022/06/27 00:07:40;;;;;;;1.17;1.00;;;;;;;;;;5000648;28;20180;-79
2022/06/27 00:10:05;;;;;;;1.30;0.90;;;;;;;;;;4995217;28;20182;-79
2022/06/27 00:12:31;;;;;;;1.10;0.73;;;;;;;;;;5002239;28;20253;-79
2022/06/27 00:14:56;;;;;;;0.80;0.80;;;;;;;;;;4996482;28;20196;-81
2022/06/27 00:17:21;;;;;;;3.00;1.13;;;;;;;;;;4966288;28;1084483;-85
2022/06/27 00:19:47;;;;;;;1.33;1.00;;;;;;;;;;4997550;28;20192;-83
2022/06/27 00:22:12;;;;;;;2.67;1.03;;;;;;;;;;4999054;28;20190;-85
2022/06/27 00:24:37;;;;;;;2.90;1.30;;;;;;;;;;4997283;28;20180;-85
2022/06/27 00:27:02;;;;;;;1.93;1.27;;;;;;;;;;5001497;28;20222;-84
2022/06/27 00:29:27;;;;;;;1.33;1.07;;;;;;;;;;5000955;28;20403;-84
2022/06/27 00:31:53;;;;;;;0.93;0.77;;;;;;;;;;5000258;28;20181;-83
2022/06/27 00:34:18;;;;;;;1.93;1.00;;;;;;;;;;4998600;28;20185;-84
2022/06/27 00:36:43;;;;;;;3.97;1.17;;;;;;;;;;5007063;28;20203;-86
2022/06/27 00:39:08;;;;;;;2.60;1.00;;;;;;;;;;5005406;28;20177;-85
2022/06/27 00:41:34;;;;;;;1.20;1.00;;;;;;;;;;5004263;28;20189;-83
2022/06/27 00:43:59;;;;;;;1.87;1.10;;;;;;;;;;5000918;28;20181;-82
2022/06/27 00:46:25;;;;;;;1.33;1.00;;;;;;;;;;4999904;28;20203;-85
2022/06/27 00:48:50;;;;;;;0.80;0.80;;;;;;;;;;5006319;28;20176;-85
2022/06/27 00:51:15;;;;;;;0.80;0.80;;;;;;;;;;5002248;28;20179;-82
2022/06/27 00:53:40;;;;;;;1.83;1.00;;;;;;;;;;5003553;28;20178;-84
2022/06/27 00:56:06;;;;;;;1.20;1.10;;;;;;;;;;5004023;28;20221;-81
2022/06/27 00:58:31;;;;;;;1.57;0.97;;;;;;;;;;5004158;28;20234;-81
2022/06/27 01:00:56;;;;;;;1.93;1.37;;;;;;;;;;4997934;28;20215;-82
2022/06/27 01:03:21;;;;;;;2.17;0.97;;;;;;;;;;5007653;28;20189;-82
2022/06/27 01:05:53;;;;;;;1.30;0.90;;;;;;;;;;5002444;28;20215;-81
2022/06/27 01:08:18;;;;;;;1.60;1.10;;;;;;;;;;5002886;28;20189;-80
2022/06/27 01:10:44;;;;;;;1.40;0.63;;;;;;;;;;5001121;28;20190;-80
2022/06/27 01:13:09;;;;;;;2.17;1.27;;;;;;;;;;5006570;28;20194;-81
2022/06/27 01:15:35;;;;;;;3.80;1.37;;;;;;;;;;5003613;28;20187;-80
2022/06/27 01:18:00;;;;;;;3.13;1.23;;;;;;;;;;5009097;28;20296;-79
2022/06/27 01:20:25;;;;;;;2.47;1.00;;;;;;;;;;4999823;28;20699;-79
2022/06/27 01:22:50;;;;;;;2.33;1.20;;;;;;;;;;5008445;28;20182;-79
2022/06/27 01:25:18;;;;;;;2.17;1.10;;;;;;;;;;5000992;28;20186;-79
2022/06/27 01:27:44;;;;;;;2.30;1.00;;;;;;;;;;5003597;28;20208;-79
2022/06/27 01:30:09;;;;;;;1.40;0.90;;;;;;;;;;4997088;28;20215;-79
2022/06/27 01:32:34;;;;;;;7.43;1.40;;;;;;;;;;5000512;28;20179;-78
2022/06/27 01:35:00;;;;;;;2.17;1.10;;;;;;;;;;4999545;28;20192;-79
2022/06/27 01:37:25;;;;;;;2.20;0.90;;;;;;;;;;5006370;28;20205;-79
2022/06/27 01:39:54;;;;;;;1.37;1.00;;;;;;;;;;5001620;28;20191;-79
2022/06/27 01:42:20;;;;;;;2.23;1.03;;;;;;;;;;5002314;28;20206;-79
2022/06/27 01:44:45;;;;;;;1.17;1.03;;;;;;;;;;4996451;28;20185;-79
2022/06/27 01:47:11;;;;;;;3.33;1.83;;;;;;;;;;5004848;28;20183;-79
2022/06/27 01:49:37;;;;;;;0.70;0.70;;;;;;;;;;5001298;28;20170;-79
2022/06/27 01:52:03;;;;;;;2.30;1.10;;;;;;;;;;5001044;28;20179;-78
2022/06/27 01:54:29;;;;;;;1.20;1.10;;;;;;;;;;5000888;28;20221;-79
2022/06/27 01:56:55;;;;;;;1.57;1.13;;;;;;;;;;5003925;28;20210;-79
2022/06/27 01:59:21;;;;;;;1.33;1.10;;;;;;;;;;4999954;28;20488;-79
2022/06/27 02:01:46;;;;;;;1.00;0.93;;;;;;;;;;4996848;28;20233;-79
2022/06/27 02:04:13;;;;;;;1.00;0.90;;;;;;;;;;4993072;28;20221;-80
2022/06/27 02:06:38;;;;;;;2.43;1.43;;;;;;;;;;5000228;28;20178;-79
2022/06/27 02:09:05;;;;;;;3.87;1.70;;;;;;;;;;5002494;28;20182;-79
2022/06/27 02:11:31;;;;;;;1.00;1.00;;;;;;;;;;5007061;28;20208;-79
2022/06/27 02:13:56;;;;;;;1.20;0.97;;;;;;;;;;5002777;28;20265;-78
2022/06/27 02:16:21;;;;;;;2.40;1.17;;;;;;;;;;5009563;28;20207;-79
2022/06/27 02:18:47;;;;;;;3.23;1.40;;;;;;;;;;4999168;28;20252;-79
2022/06/27 02:21:13;;;;;;;1.30;1.10;;;;;;;;;;4993442;28;20195;-79
2022/06/27 02:23:39;;;;;;;4.63;1.30;;;;;;;;;;5001493;28;20182;-79
2022/06/27 02:26:08;;;;;;;1.50;1.40;;;;;;;;;;5001544;28;20232;-79
2022/06/27 02:28:34;;;;;;;1.93;1.63;;;;;;;;;;4999557;28;20289;-79
2022/06/27 02:31:00;;;;;;;1.63;1.53;;;;;;;;;;5004322;28;20180;-78
2022/06/27 02:33:32;;;;;;;1.30;1.20;;;;;;;;;;5000495;28;20188;-79
2022/06/27 02:35:58;;;;;;;3.03;1.37;;;;;;;;;;4998967;28;20198;-79
2022/06/27 02:38:23;;;;;;;1.63;1.50;;;;;;;;;;5002157;28;20208;-79
2022/06/27 02:40:49;;;;;;;2.03;1.67;;;;;;;;;;5006884;28;20200;-79
2022/06/27 02:43:16;;;;;;;3.60;1.50;;;;;;;;;;5000495;28;20195;-79
2022/06/27 02:45:42;;;;;;;3.93;1.80;;;;;;;;;;5009465;28;20187;-79
2022/06/27 02:48:07;;;;;;;3.13;2.10;;;;;;;;;;4995904;28;20205;-79
2022/06/27 02:50:34;;;;;;;1.97;1.80;;;;;;;;;;4999991;28;20180;-78
2022/06/27 02:53:01;;;;;;;2.00;1.80;;;;;;;;;;5008280;28;20180;-79
2022/06/27 02:55:27;;;;;;;2.60;1.90;;;;;;;;;;5002125;28;20185;-79
2022/06/27 02:58:03;;;;;;;3.13;1.97;;;;;;;;;;4999827;28;20177;-79
2022/06/27 03:00:30;;;;;;;3.60;2.00;;;;;;;;;;5006489;28;20205;-79
2022/06/27 03:02:56;;;;;;;2.00;1.90;;;;;;;;;;4997280;28;20212;-79
2022/06/27 03:05:21;;;;;;;3.93;2.40;;;;;;;;;;5006690;28;20189;-79
2022/06/27 03:07:47;;;;;;;2.60;2.40;;;;;;;;;;5002215;28;20176;-79
2022/06/27 03:10:12;;;;;;;2.40;2.20;;;;;;;;;;5004200;28;20198;-79
2022/06/27 03:12:38;;;;;;;2.60;2.20;;;;;;;;;;5000582;28;20181;-79
2022/06/27 03:15:05;;;;;;;2.63;1.87;;;;;;;;;;5000250;28;20185;-79
2022/06/27 03:17:30;;;;;;;2.13;1.77;;;;;;;;;;5003224;28;20377;-79
2022/06/27 03:19:56;;;;;;;2.50;1.90;;;;;;;;;;5004497;28;20164;-79
2022/06/27 03:22:21;;;;;;;8.80;2.03;;;;;;;;;;5000873;28;20176;-79
2022/06/27 03:24:46;;;;;;;2.03;1.87;;;;;;;;;;5005036;28;20174;-79
2022/06/27 03:27:11;;;;;;;3.00;2.20;;;;;;;;;;5003968;28;20245;-79
2022/06/27 03:29:39;;;;;;;2.37;2.17;;;;;;;;;;5006184;28;20165;-79
2022/06/27 03:32:04;;;;;;;2.67;2.47;;;;;;;;;;5007939;28;20185;-78
2022/06/27 03:34:30;;;;;;;2.37;2.17;;;;;;;;;;5004446;28;20176;-79
2022/06/27 03:36:56;;;;;;;3.27;2.30;;;;;;;;;;4998423;28;20353;-78
2022/06/27 03:39:22;;;;;;;2.73;2.30;;;;;;;;;;5004341;28;20198;-79
2022/06/27 03:41:47;;;;;;;2.77;2.07;;;;;;;;;;5000307;28;20204;-79
2022/06/27 03:44:12;;;;;;;2.20;2.00;;;;;;;;;;4998997;28;20203;-78
2022/06/27 03:46:38;;;;;;;2.70;1.87;;;;;;;;;;5003740;28;20181;-78
2022/06/27 03:51:47;;;;;;;2.50;1.63;;;;;;;;;;5014764;28;20188;-79
2022/06/27 03:54:12;;;;;;;1.70;1.60;;;;;;;;;;5004509;28;20202;-79
2022/06/27 03:56:37;;;;;;;1.70;1.60;;;;;;;;;;5004185;28;20285;-79
2022/06/27 03:59:02;;;;;;;1.97;1.50;;;;;;;;;;5000059;28;20196;-79
2022/06/27 04:01:28;;;;;;;1.60;1.50;;;;;;;;;;5005165;28;20200;-79
2022/06/27 04:03:53;;;;;;;2.33;1.60;;;;;;;;;;4995978;28;20252;-79
2022/06/27 04:06:18;;;;;;;1.60;1.40;;;;;;;;;;5000556;28;20177;-79
2022/06/27 04:08:43;;;;;;;2.70;1.63;;;;;;;;;;5004517;28;20189;-79
2022/06/27 04:11:09;;;;;;;1.33;1.23;;;;;;;;;;5007950;28;20211;-80
2022/06/27 04:13:34;;;;;;;2.10;1.37;;;;;;;;;;5003096;28;20186;-79
2022/06/27 04:15:59;;;;;;;1.40;1.30;;;;;;;;;;5001721;28;20239;-79
2022/06/27 04:18:24;;;;;;;1.50;1.30;;;;;;;;;;4998516;28;20221;-79
2022/06/27 04:20:50;;;;;;;2.43;1.50;;;;;;;;;;4999139;28;20217;-79
2022/06/27 04:23:15;;;;;;;2.00;1.90;;;;;;;;;;4999272;28;20179;-79
2022/06/27 04:25:42;;;;;;;1.90;1.30;;;;;;;;;;4997979;28;20413;-79
2022/06/27 04:28:07;;;;;;;3.17;1.30;;;;;;;;;;5001625;28;20227;-79
2022/06/27 04:30:32;;;;;;;1.40;1.30;;;;;;;;;;5006712;28;20180;-79
2022/06/27 04:32:58;;;;;;;1.60;1.30;;;;;;;;;;5004882;28;20186;-79
2022/06/27 04:35:25;;;;;;;1.37;1.20;;;;;;;;;;5009517;28;20183;-79
2022/06/27 04:37:50;;;;;;;1.20;1.10;;;;;;;;;;5001425;28;20228;-79
2022/06/27 04:40:17;;;;;;;1.23;1.13;;;;;;;;;;4999754;28;20641;-79
2022/06/27 04:42:43;;;;;;;1.30;1.20;;;;;;;;;;5000666;28;20206;-79
2022/06/27 04:45:09;;;;;;;1.67;1.43;;;;;;;;;;4998366;28;20181;-79
2022/06/27 04:47:37;;;;;;;1.20;1.13;;;;;;;;;;5000879;28;20223;-79
2022/06/27 04:50:02;;;;;;;1.33;1.17;;;;;;;;;;5000186;28;20186;-77
2022/06/27 04:52:28;;;;;;;2.40;1.10;;;;;;;;;;5007361;28;20233;-79
2022/06/27 04:54:54;;;;;;;1.97;1.40;;;;;;;;;;4997014;28;20183;-79
2022/06/27 04:57:19;;;;;;;1.93;1.23;;;;;;;;;;5003402;28;20187;-79
2022/06/27 04:59:45;;;;;;;1.23;1.17;;;;;;;;;;5002858;28;20186;-79
2022/06/27 05:02:10;;;;;;;1.53;1.20;;;;;;;;;;5006410;28;20216;-79
2022/06/27 05:04:35;;;;;;;2.13;1.20;;;;;;;;;;5005647;28;20180;-79
2022/06/27 05:07:01;;;;;;;1.30;1.20;;;;;;;;;;5005548;28;20182;-79
2022/06/27 05:09:26;;;;;;;3.17;1.23;;;;;;;;;;4997606;28;20174;-80
2022/06/27 05:11:54;;;;;;;2.30;1.57;;;;;;;;;;5001311;28;20270;-79
2022/06/27 05:14:19;;;;;;;1.90;1.27;;;;;;;;;;4997031;28;20279;-79
2022/06/27 05:16:44;;;;;;;2.23;2.03;;;;;;;;;;4997450;28;20322;-79
2022/06/27 05:19:10;;;;;;;1.40;1.30;;;;;;;;;;5000640;28;20249;-79
2022/06/27 05:21:35;;;;;;;1.13;1.10;;;;;;;;;;5000215;28;20215;-79
2022/06/27 05:24:01;;;;;;;1.60;1.20;;;;;;;;;;4996033;28;20169;-79
2022/06/27 05:26:26;;;;;;;1.53;1.43;;;;;;;;;;5001824;28;20230;-79
2022/06/27 05:28:52;;;;;;;2.00;1.47;;;;;;;;;;4999736;28;20188;-79
2022/06/27 05:31:17;;;;;;;2.33;1.77;;;;;;;;;;5003178;28;20244;-79
2022/06/27 05:33:42;;;;;;;1.60;1.50;;;;;;;;;;5005042;28;20175;-79
2022/06/27 05:36:08;;;;;;;1.37;1.20;;;;;;;;;;4995917;28;20290;-79
2022/06/27 05:38:36;;;;;;;1.40;1.10;;;;;;;;;;4996387;28;20176;-79
2022/06/27 05:41:02;;;;;;;2.40;1.20;;;;;;;;;;5003633;28;20229;-79
2022/06/27 05:43:27;;;;;;;1.10;1.10;;;;;;;;;;4994100;28;20176;-79
2022/06/27 05:45:53;;;;;;;1.50;1.40;;;;;;;;;;5002417;28;20193;-79
2022/06/27 05:48:19;;;;;;;1.17;1.07;;;;;;;;;;4994295;28;20234;-80
2022/06/27 05:50:44;;;;;;;3.33;2.80;;;;;;;;;;4999539;28;20194;-80
2022/06/27 05:53:09;;;;;;;2.37;1.13;;;;;;;;;;5004347;28;20224;-76
2022/06/27 05:55:35;;;;;;;1.30;1.20;;;;;;;;;;4995330;28;20177;-76
2022/06/27 05:58:02;;;;;;;1.77;0.80;;;;;;;;;;5003715;28;20176;-76
2022/06/27 06:00:29;;;;;;;1.67;1.30;;;;;;;;;;4994632;28;20209;-76
2022/06/27 06:02:55;;;;;;;1.00;1.00;;;;;;;;;;4995811;28;20205;-76
2022/06/27 06:05:21;;;;;;;1.60;1.33;;;;;;;;;;4993475;28;20187;-76
2022/06/27 06:07:46;;;;;;;1.43;1.33;;;;;;;;;;4994201;28;20183;-76
2022/06/27 06:10:12;;;;;;;1.40;1.00;;;;;;;;;;5000056;28;20473;-75
2022/06/27 06:12:38;;;;;;;1.07;1.07;;;;;;;;;;5001486;28;20309;-76
2022/06/27 06:15:03;;;;;;;1.10;1.10;;;;;;;;;;5005413;28;20198;-76
2022/06/27 06:17:31;;;;;;;0.97;0.97;;;;;;;;;;4998560;28;20223;-77
2022/06/27 06:19:56;;;;;;;1.00;1.00;;;;;;;;;;4994731;28;20298;-77
2022/06/27 06:22:21;;;;;;;1.57;0.90;;;;;;;;;;5004101;28;20215;-76
2022/06/27 06:24:50;;;;;;;1.53;1.03;;;;;;;;;;4998521;28;20184;-76
2022/06/27 06:27:18;;;;;;;1.63;1.13;;;;;;;;;;4998944;28;20177;-76
2022/06/27 06:29:44;;;;;;;1.73;1.00;;;;;;;;;;4996966;28;20199;-76
2022/06/27 06:32:10;;;;;;;2.03;1.20;;;;;;;;;;4996366;28;20180;-76
2022/06/27 06:34:35;;;;;;;1.00;1.00;;;;;;;;;;4994348;28;20226;-76
2022/06/27 06:37:01;;;;;;;2.40;1.00;;;;;;;;;;5001626;28;20198;-76
2022/06/27 06:39:26;;;;;;;1.87;1.40;;;;;;;;;;4999311;28;20274;-76
2022/06/27 06:41:52;;;;;;;1.10;1.10;;;;;;;;;;4993611;28;20201;-76
2022/06/27 06:44:18;;;;;;;1.33;0.90;;;;;;;;;;4995700;28;20170;-76
2022/06/27 06:46:43;;;;;;;1.77;1.20;;;;;;;;;;4994592;28;20299;-77
2022/06/27 06:49:10;;;;;;;1.17;0.90;;;;;;;;;;4997650;28;20182;-77
2022/06/27 06:51:37;;;;;;;1.07;1.07;;;;;;;;;;5013810;28;20193;-76
2022/06/27 06:54:06;;;;;;;1.20;1.10;;;;;;;;;;4993876;28;20185;-77
2022/06/27 06:56:32;;;;;;;1.30;1.20;;;;;;;;;;4992382;28;20181;-77
2022/06/27 06:58:58;;;;;;;2.23;1.17;;;;;;;;;;4994947;28;20329;-76
2022/06/27 07:01:24;;;;;;;1.30;1.20;;;;;;;;;;4997517;28;20231;-76
2022/06/27 07:03:50;;;;;;;3.80;1.23;;;;;;;;;;4994895;28;20193;-76
2022/06/27 07:06:17;;;;;;;1.30;1.20;;;;;;;;;;4997028;28;20530;-77
2022/06/27 07:08:45;;;;;;;3.07;1.20;;;;;;;;;;4992579;28;20190;-77
2022/06/27 07:11:10;;;;;;;1.10;1.10;;;;;;;;;;4998035;28;20192;-77
2022/06/27 07:13:37;;;;;;;1.00;1.00;;;;;;;;;;4991114;28;20204;-77
2022/06/27 07:16:05;;;;;;;2.70;1.17;;;;;;;;;;4996889;28;20178;-77
2022/06/27 07:18:31;;;;;;;2.90;1.20;;;;;;;;;;4994780;28;20232;-76
2022/06/27 07:20:57;;;;;;;1.67;1.13;;;;;;;;;;4991962;28;20210;-76
2022/06/27 07:23:22;;;;;;;2.27;1.13;;;;;;;;;;4997411;28;20185;-77
2022/06/27 07:25:47;;;;;;;2.07;1.80;;;;;;;;;;4997400;28;20177;-77
2022/06/27 07:28:12;;;;;;;1.67;1.30;;;;;;;;;;4993179;28;20178;-76
2022/06/27 07:30:40;;;;;;;1.20;1.10;;;;;;;;;;4993579;28;20245;-76
2022/06/27 07:33:06;;;;;;;1.80;1.20;;;;;;;;;;5002394;28;20276;-77
2022/06/27 07:35:33;;;;;;;1.33;1.23;;;;;;;;;;4995865;28;20190;-77
2022/06/27 07:38:00;;;;;;;2.93;1.40;;;;;;;;;;4997589;28;20201;-76
2022/06/27 07:40:25;;;;;;;1.47;0.97;;;;;;;;;;4999468;28;20308;-77
2022/06/27 07:42:51;;;;;;;1.20;1.20;;;;;;;;;;5007828;28;20181;-77
2022/06/27 07:45:18;;;;;;;1.20;1.10;;;;;;;;;;4994868;28;20183;-76
2022/06/27 07:47:44;;;;;;;1.00;1.00;;;;;;;;;;4989933;28;20227;-77
2022/06/27 07:50:10;;;;;;;1.00;1.00;;;;;;;;;;4995570;28;20185;-77
2022/06/27 07:55:21;;;;;;;1.33;1.23;;;;;;;;;;4993977;28;20184;-77
2022/06/27 07:57:47;;;;;;;3.77;1.57;;;;;;;;;;4988280;28;20215;-77
2022/06/27 08:00:14;;;;;;;1.43;1.33;;;;;;;;;;4994129;28;20214;-76
2022/06/27 08:02:39;;;;;;;1.40;1.30;;;;;;;;;;4995153;28;20190;-77
2022/06/27 08:05:05;;;;;;;1.10;1.10;;;;;;;;;;4994447;28;20295;-77
2022/06/27 08:07:31;;;;;;;2.17;1.70;;;;;;;;;;4992716;28;20641;-77
2022/06/27 08:09:56;;;;;;;1.50;1.40;;;;;;;;;;4996270;28;20243;-77
2022/06/27 08:12:21;;;;;;;2.33;1.60;;;;;;;;;;4993337;28;20201;-77
2022/06/27 08:14:47;;;;;;;1.70;1.60;;;;;;;;;;4997435;28;20193;-77
2022/06/27 08:17:13;;;;;;;1.60;1.50;;;;;;;;;;5000790;28;20234;-77
2022/06/27 08:19:39;;;;;;;1.57;1.47;;;;;;;;;;4999545;28;20186;-77
2022/06/27 08:22:04;;;;;;;1.70;1.60;;;;;;;;;;4998547;28;20226;-77
2022/06/27 08:24:30;;;;;;;1.60;1.50;;;;;;;;;;5007677;28;20185;-77
2022/06/27 08:26:55;;;;;;;1.60;1.40;;;;;;;;;;5000937;28;20178;-77
2022/06/27 08:29:20;;;;;;;1.87;1.60;;;;;;;;;;4999462;28;20182;-77
2022/06/27 08:31:46;;;;;;;1.80;1.70;;;;;;;;;;5005618;28;20675;-77
2022/06/27 08:34:13;;;;;;;1.70;1.60;;;;;;;;;;4995910;28;20182;-77
2022/06/27 08:36:40;;;;;;;1.70;1.60;;;;;;;;;;4999809;28;20199;-77
2022/06/27 08:39:11;;;;;;;7.33;6.83;;;;;;;;;;5008523;28;20193;-77
2022/06/27 08:41:36;;;;;;;2.00;1.80;;;;;;;;;;5006214;28;20197;-77
2022/06/27 08:49:07;;;;;;;2.00;1.90;;;;;;;;;;4984749;28;20850;-77
2022/06/27 08:51:33;;;;;;;2.00;1.90;;;;;;;;;;4985347;28;20226;-77
2022/06/27 08:53:59;;;;;;;3.80;1.73;;;;;;;;;;4983237;28;20182;-77
2022/06/27 08:56:26;;;;;;;1.80;1.70;;;;;;;;;;4999839;28;20190;-77
2022/06/27 08:58:55;;;;;;;1.90;1.80;;;;;;;;;;4998968;28;20182;-77
2022/06/27 09:01:27;;;;;;;2.10;2.00;;;;;;;;;;4986110;28;20238;-77
2022/06/27 09:04:01;;;;;;;1.73;1.63;;;;;;;;;;5002721;28;20179;-77
2022/06/27 09:06:47;;;;;;;3.13;2.93;;;;;;;;;;5018367;28;20206;-77
2022/06/27 09:09:15;;;;;;;1.63;1.50;;;;;;;;;;4981223;28;20195;-77
2022/06/27 09:11:44;;;;;;;1.90;1.80;;;;;;;;;;4995326;28;20186;-77
2022/06/27 09:14:28;;;;;;;1.90;1.80;;;;;;;;;;4991363;28;20187;-77
2022/06/27 09:16:57;;;;;;;1.73;1.63;;;;;;;;;;4997780;28;20179;-77
2022/06/27 09:19:42;;;;;;;2.30;1.70;;;;;;;;;;4986297;28;20179;-78
2022/06/27 09:22:15;;;;;;;1.80;1.70;;;;;;;;;;4984371;28;20242;-77
2022/06/27 09:25:00;;;;;;;2.30;2.10;;;;;;;;;;4993152;28;20181;-77
2022/06/27 09:27:40;;;;;;;3.03;2.07;;;;;;;;;;4988470;28;20216;-78
2022/06/27 09:30:18;;;;;;;2.63;2.43;;;;;;;;;;4982031;28;20198;-78
2022/06/27 09:32:43;;;;;;;2.60;2.40;;;;;;;;;;5001175;28;20211;-77
2022/06/27 09:35:32;;;;;;;2.73;2.50;;;;;;;;;;4984485;28;20218;-77
2022/06/27 09:37:59;;;;;;;2.70;2.50;;;;;;;;;;4980166;28;20218;-78
2022/06/27 09:40:26;;;;;;;2.90;2.70;;;;;;;;;;4983284;28;20219;-78
2022/06/27 09:42:52;;;;;;;2.80;2.60;;;;;;;;;;4989522;28;20192;-77
2022/06/27 09:45:17;;;;;;;2.87;2.67;;;;;;;;;;4987913;28;20176;-77
2022/06/27 09:47:43;;;;;;;2.70;2.50;;;;;;;;;;4983751;28;20221;-78
2022/06/27 09:50:09;;;;;;;3.43;3.13;;;;;;;;;;4983016;28;20182;-78
2022/06/27 09:52:36;;;;;;;3.80;3.20;;;;;;;;;;4988382;28;20187;-77
2022/06/27 09:55:02;;;;;;;3.07;2.87;;;;;;;;;;4987418;28;20289;-78
2022/06/27 09:57:27;;;;;;;3.40;3.10;;;;;;;;;;4983051;28;20195;-78
2022/06/27 09:59:53;;;;;;;3.40;3.10;;;;;;;;;;4989586;28;20183;-78
2022/06/27 10:02:19;;;;;;;4.00;3.70;;;;;;;;;;4985835;28;20215;-78
2022/06/27 10:04:45;;;;;;;3.80;3.50;;;;;;;;;;4999072;28;20200;-78
2022/06/27 10:07:11;;;;;;;4.33;3.43;;;;;;;;;;4986496;28;20177;-78
2022/06/27 10:09:38;;;;;;;3.80;3.37;;;;;;;;;;4983834;28;20173;-77
2022/06/27 10:12:38;;;;;;;4.63;3.30;;;;;;;;;;4984273;28;20184;-77
2022/06/27 10:15:09;;;;;;;2.73;2.53;;;;;;;;;;4993372;28;20187;-77
2022/06/27 10:17:38;;;;;;;3.00;2.73;;;;;;;;;;4987647;28;20196;-78
2022/06/27 10:20:09;;;;;;;2.80;2.60;;;;;;;;;;4999273;28;20180;-78
2022/06/27 10:22:35;;;;;;;2.77;2.57;;;;;;;;;;4986270;28;20211;-77
2022/06/27 10:25:18;;;;;;;2.70;2.50;;;;;;;;;;4991758;28;20208;-77
2022/06/27 10:27:44;;;;;;;2.20;2.00;;;;;;;;;;4981093;28;20823;-78
2022/06/27 10:30:28;;;;;;;2.50;2.30;;;;;;;;;;4980600;28;20224;-78
2022/06/27 10:32:53;;;;;;;2.20;2.10;;;;;;;;;;4985818;28;20183;-78
2022/06/27 10:35:18;;;;;;;2.33;2.10;;;;;;;;;;4988740;28;20247;-78
2022/06/27 10:37:44;;;;;;;3.23;2.23;;;;;;;;;;4991252;28;20255;-78
2022/06/27 10:40:19;;;;;;;1.87;1.77;;;;;;;;;;4996107;28;20188;-78
2022/06/27 10:42:44;;;;;;;3.07;2.30;;;;;;;;;;4988568;28;20180;-78
2022/06/27 10:45:28;;;;;;;2.23;1.93;;;;;;;;;;4997310;28;20182;-78
2022/06/27 10:47:54;;;;;;;1.97;1.87;;;;;;;;;;4989029;28;20217;-78
2022/06/27 10:50:20;;;;;;;5.40;2.90;;;;;;;;;;4990678;28;20193;-78
2022/06/27 10:52:46;;;;;;;2.03;1.90;;;;;;;;;;4990180;28;20224;-78
2022/06/27 10:55:22;;;;;;;1.97;1.80;;;;;;;;;;4989722;28;20178;-78
2022/06/27 10:57:48;;;;;;;1.97;1.87;;;;;;;;;;4984688;28;20275;-77
2022/06/27 11:00:32;;;;;;;2.33;2.13;;;;;;;;;;4980836;28;20260;-77
2022/06/27 11:02:58;;;;;;;2.50;2.30;;;;;;;;;;4986889;28;20271;-77
2022/06/27 11:05:23;;;;;;;2.23;2.13;;;;;;;;;;4995272;28;20277;-77
2022/06/27 11:07:50;;;;;;;2.43;2.23;;;;;;;;;;4988632;28;20307;-77
2022/06/27 11:10:15;;;;;;;2.90;2.20;;;;;;;;;;4995810;28;20191;-77
2022/06/27 11:12:41;;;;;;;2.60;2.40;;;;;;;;;;4985714;28;20229;-77
2022/06/27 11:15:09;;;;;;;3.33;3.00;;;;;;;;;;4990632;28;20274;-78
2022/06/27 11:17:41;;;;;;;2.63;2.43;;;;;;;;;;4981961;28;20208;-77
2022/06/27 11:20:19;;;;;;;2.80;2.60;;;;;;;;;;4979758;28;21384;-78
2022/06/27 11:22:45;;;;;;;2.70;2.50;;;;;;;;;;4979902;28;20222;-77
2022/06/27 11:25:11;;;;;;;2.43;2.23;;;;;;;;;;4982255;28;20232;-77
2022/06/27 11:27:50;;;;;;;2.70;2.40;;;;;;;;;;4980734;28;20266;-77
2022/06/27 11:33:10;;;;;;;2.50;2.30;;;;;;;;;;4983649;28;20194;-77
2022/06/27 11:35:35;;;;;;;2.70;2.50;;;;;;;;;;4980166;28;20184;-77
2022/06/27 11:38:00;;;;;;;2.60;2.40;;;;;;;;;;4979178;28;20222;-77
2022/06/27 11:40:26;;;;;;;2.47;2.27;;;;;;;;;;4981588;28;20240;-77
2022/06/27 11:42:52;;;;;;;3.13;2.40;;;;;;;;;;4981916;28;20249;-77
2022/06/27 11:45:17;;;;;;;2.30;2.10;;;;;;;;;;5000263;28;20185;-77
2022/06/27 11:47:44;;;;;;;2.50;2.40;;;;;;;;;;4979719;28;20284;-77
2022/06/27 11:50:13;;;;;;;2.57;2.27;;;;;;;;;;4997459;28;20184;-78
2022/06/27 11:52:39;;;;;;;2.57;2.30;;;;;;;;;;4986022;28;20204;-77
2022/06/27 11:55:06;;;;;;;2.00;1.90;;;;;;;;;;4983644;28;20432;-77
2022/06/27 11:57:32;;;;;;;2.80;2.60;;;;;;;;;;4986468;28;20185;-77
2022/06/27 11:59:58;;;;;;;2.40;2.30;;;;;;;;;;4986674;28;20190;-77
2022/06/27 12:02:27;;;;;;;2.67;2.47;;;;;;;;;;4998033;28;20213;-77
2022/06/27 12:05:09;;;;;;;2.30;2.20;;;;;;;;;;4987923;28;20179;-77
2022/06/27 12:07:53;;;;;;;2.17;2.07;;;;;;;;;;4986179;28;20172;-78
2022/06/27 12:10:33;;;;;;;2.33;2.13;;;;;;;;;;4987572;28;20212;-77
2022/06/27 12:12:58;;;;;;;2.40;2.20;;;;;;;;;;4998956;28;20261;-77
2022/06/27 12:15:26;;;;;;;2.83;2.20;;;;;;;;;;4982340;28;20264;-77
2022/06/27 12:17:55;;;;;;;3.20;2.37;;;;;;;;;;4999246;28;20341;-77
2022/06/27 12:20:20;;;;;;;2.77;2.30;;;;;;;;;;4979347;28;20189;-77
2022/06/27 12:22:46;;;;;;;2.20;2.10;;;;;;;;;;4982305;28;20195;-77
2022/06/27 12:25:12;;;;;;;2.40;2.20;;;;;;;;;;4985004;28;20182;-77
2022/06/27 12:27:37;;;;;;;2.00;1.90;;;;;;;;;;4985294;28;20181;-77
2022/06/27 12:30:02;;;;;;;2.63;2.10;;;;;;;;;;4981720;28;20212;-77
2022/06/27 12:32:28;;;;;;;2.17;1.97;;;;;;;;;;4982978;28;20183;-77
2022/06/27 12:34:53;;;;;;;2.20;2.00;;;;;;;;;;4982606;28;20192;-77
2022/06/27 12:37:18;;;;;;;2.67;2.47;;;;;;;;;;4981856;28;20211;-77
2022/06/27 12:39:43;;;;;;;2.50;2.30;;;;;;;;;;4983036;28;20199;-77
2022/06/27 12:42:09;;;;;;;2.40;2.20;;;;;;;;;;4985611;28;20211;-77
2022/06/27 12:44:34;;;;;;;2.20;2.00;;;;;;;;;;4982255;28;20179;-78
2022/06/27 12:46:59;;;;;;;2.50;2.23;;;;;;;;;;4982905;28;20179;-77
2022/06/27 12:49:27;;;;;;;2.17;2.07;;;;;;;;;;4985225;28;20267;-77
2022/06/27 12:51:52;;;;;;;2.27;2.17;;;;;;;;;;4983401;28;20185;-78
2022/06/27 12:54:18;;;;;;;2.73;2.30;;;;;;;;;;4981708;28;20183;-77
2022/06/27 12:56:46;;;;;;;2.20;2.10;;;;;;;;;;4980766;28;20177;-77
2022/06/27 12:59:12;;;;;;;2.30;2.10;;;;;;;;;;4982187;28;20196;-78
2022/06/27 13:01:37;;;;;;;2.63;2.43;;;;;;;;;;4982552;28;20217;-77
2022/06/27 13:04:02;;;;;;;2.10;2.00;;;;;;;;;;4983886;28;20181;-77
2022/06/27 13:06:28;;;;;;;2.00;1.80;;;;;;;;;;4983789;28;22211;-77
2022/06/27 13:08:53;;;;;;;1.83;1.73;;;;;;;;;;4983182;28;20197;-77
2022/06/27 13:11:18;;;;;;;2.30;2.10;;;;;;;;;;4983783;28;20208;-78
2022/06/27 13:13:43;;;;;;;2.30;2.10;;;;;;;;;;4999647;28;20190;-77
2022/06/27 13:16:09;;;;;;;2.27;2.07;;;;;;;;;;4983013;28;20242;-77
2022/06/27 13:18:34;;;;;;;2.20;2.10;;;;;;;;;;4982447;28;20264;-77
2022/06/27 13:20:59;;;;;;;2.40;2.10;;;;;;;;;;4983804;28;20200;-78
2022/06/27 13:23:24;;;;;;;1.87;1.77;;;;;;;;;;4981278;28;20248;-77
2022/06/27 13:25:50;;;;;;;2.00;1.90;;;;;;;;;;4989489;28;20210;-78
2022/06/27 13:28:15;;;;;;;2.40;2.20;;;;;;;;;;4990258;28;20209;-77
2022/06/27 13:30:40;;;;;;;2.30;2.20;;;;;;;;;;4983194;28;20201;-78
2022/06/27 13:33:06;;;;;;;2.67;2.47;;;;;;;;;;4980599;28;20193;-78
2022/06/27 13:35:31;;;;;;;2.00;1.90;;;;;;;;;;4986360;28;20190;-78
2022/06/27 13:37:57;;;;;;;2.10;2.00;;;;;;;;;;4983835;28;20224;-78
2022/06/27 13:40:23;;;;;;;2.00;1.90;;;;;;;;;;4981837;28;20245;-78
2022/06/27 13:42:49;;;;;;;1.70;1.60;;;;;;;;;;4984282;28;20200;-78
2022/06/27 13:45:14;;;;;;;1.90;1.80;;;;;;;;;;4978967;28;20183;-78
2022/06/27 13:47:39;;;;;;;2.33;1.70;;;;;;;;;;4981200;28;20562;-78
2022/06/27 13:50:05;;;;;;;2.13;1.83;;;;;;;;;;4980000;28;20186;-82
2022/06/27 13:52:31;;;;;;;2.00;1.77;;;;;;;;;;4983655;28;20180;-80
2022/06/27 13:54:56;;;;;;;1.63;1.53;;;;;;;;;;5001441;28;20188;-79
2022/06/27 13:57:23;;;;;;;2.40;1.50;;;;;;;;;;4980613;28;20221;-79
2022/06/27 13:59:48;;;;;;;1.80;1.70;;;;;;;;;;4982873;28;20185;-79
2022/06/27 14:02:13;;;;;;;1.70;1.60;;;;;;;;;;4986224;28;20213;-80
2022/06/27 14:04:39;;;;;;;2.30;1.70;;;;;;;;;;4988034;28;20181;-80
2022/06/27 14:09:48;;;;;;;1.60;1.50;;;;;;;;;;4989675;28;20234;-82
2022/06/27 14:12:13;;;;;;;1.80;1.70;;;;;;;;;;4986529;28;20186;-80
2022/06/27 14:14:38;;;;;;;1.90;1.67;;;;;;;;;;4991988;28;20182;-81
2022/06/27 14:17:04;;;;;;;1.90;1.60;;;;;;;;;;4988359;28;20235;-80
2022/06/27 14:19:29;;;;;;;1.90;1.80;;;;;;;;;;4985383;28;20195;-81
2022/06/27 14:21:54;;;;;;;2.17;1.80;;;;;;;;;;4988971;28;20226;-81
2022/06/27 14:24:20;;;;;;;2.10;1.93;;;;;;;;;;4990322;28;20176;-81
2022/06/27 14:26:45;;;;;;;2.30;2.10;;;;;;;;;;4986941;28;20264;-81
2022/06/27 14:29:11;;;;;;;2.57;1.87;;;;;;;;;;4986988;28;20195;-81
2022/06/27 14:31:36;;;;;;;2.37;2.17;;;;;;;;;;4988209;28;20185;-81
2022/06/27 14:34:02;;;;;;;2.33;1.80;;;;;;;;;;4987323;28;20275;-81
2022/06/27 14:36:27;;;;;;;2.23;2.07;;;;;;;;;;4982409;28;20199;-80
2022/06/27 14:38:53;;;;;;;2.37;2.17;;;;;;;;;;4982205;28;20191;-80
2022/06/27 14:41:18;;;;;;;2.80;2.13;;;;;;;;;;4986108;28;20207;-79
2022/06/27 14:43:43;;;;;;;1.80;1.70;;;;;;;;;;4990139;28;20189;-79
2022/06/27 14:46:08;;;;;;;2.17;2.00;;;;;;;;;;4990375;28;20189;-80
2022/06/27 14:48:34;;;;;;;1.93;1.83;;;;;;;;;;4988625;28;20227;-79
2022/06/27 14:50:59;;;;;;;2.07;1.77;;;;;;;;;;4983296;28;20274;-80
2022/06/27 14:53:26;;;;;;;1.80;1.53;;;;;;;;;;4985627;28;20251;-80
2022/06/27 14:55:52;;;;;;;1.87;1.77;;;;;;;;;;4992476;28;20193;-81